SEASEATTLE-TACOMA INTL
METARs for airports near SEA, sorted by distance:
N 0 nm 432' KSEA 300253Z 18004KT 10SM BKN034 OVC055 13/09 A3023
NE 4 nm 32' KRNT 300253Z 00000KT 10SM SCT042 OVC055 13/10 A3022
N 4 nm 21' KBFI 300253Z 14006KT 10SM BKN037 OVC055 13/11 A3022
SW 15 nm 294' KTIW 300253Z 24003KT 10SM SCT040 BKN050 11/11 A3023
W 18 nm 444' KPWT 300303Z 22004KT 10SM BKN028 BKN035 11/11 A3022
S 19 nm 322' KTCM 300258Z 00000KT 10SM OVC049 10/10 A3023
S 20 nm 537' KPLU 300315Z VRB04KT 10SM OVC049 13/10 A3022
SW 24 nm 301' KGRF 300258Z 00000KT 10SM OVC049 11/09 A3022
N 27 nm 606' KPAE 300253Z 16009KT 10SM CLR 12/09 A3021
W 36 nm 272' KSHN 300253Z 00000KT 9SM FEW013 OVC020 12/12 A3020
SW 37 nm 207' KOLM 300254Z 23003KT 10SM FEW016 BKN049 OVC060 12/11 A3024
N 43 nm 141' KAWO 300256Z 12009KT 10SM FEW038 13/10 A3021
SW 53 nm 177' KCLS 300315Z 20007KT 10SM SCT032 OVC038 14/12 A3024
N 55 nm 47' KNUW 300256Z 13009KT 10SM BKN019 OVC050 13/10 A3022
NW 60 nm 13' KNOW 300255Z 00000KT 10SM BKN002 OVC070 08/08 A3018
N 61 nm 145' KBVS 300315Z 15005KT 8SM BKN024 OVC029 14/10 A3019
NW 62 nm 291' KCLM 300307Z 00000KT 6SM BR BKN013 BKN070 08/07 A3018
NW 70 nm 112' KFHR 300253Z 20003KT 10SM CLR 09/09 A3017
SW 72 nm 17' KHQM 300317Z 24004KT 3SM BR OVC005 12/11 A3022
E 76 nm 1763' KELN 300253Z 00000KT 10SM CLR 07/02 A3022
N 79 nm 34' KORS 300315Z 18010KT 10SM CLR 12/11 A3015
N 81 nm 171' KBLI 300253Z 17011G18KT 10SM CLR 13/10 A3016
S 83 nm 20' KKLS 300256Z 16008KT 10SM BKN014 OVC055 13/12 A3025
NW 84 nm 64' CYYJ 300300Z 14007KT 15SM FEW028 SCT070 BKN230 11/11 A3015
E 85 nm 1248' KEAT 300255Z 00000KT 10SM CLR 08/04 A3018
SE 89 nm 1098' KYKM 300253Z 27007KT 10SM CLR 06/03 A3023
W 95 nm 193' KUIL 300316Z 19007KT 1 3/4SM -RA BR OVC005 11/11 A3019
TAFs for airports near SEA, sorted by distance:
N 0 nm 432' KSEA TAF
  AMD KSEA 300302Z 3003/0106 22011KT P6SM FEW016 BKN035 OVC050
  FM300600 19007KT P6SM BKN030 OVC050
  FM300900 19008KT P6SM OVC020
  FM301200 18012KT P6SM VCSH OVC017
  FM302100 18012G20KT P6SM VCSH OVC015
N 4 nm 21' KBFI TAF
  AMD KBFI 300302Z 3003/3024 14006KT P6SM SCT025 BKN035 OVC050
  FM300600 19007KT P6SM BKN025 OVC050
  FM300900 19008KT P6SM OVC025
  FM301200 18012KT P6SM VCSH OVC020
W 18 nm 444' KPWT TAF
  AMD KPWT 300303Z 3003/3024 22005KT P6SM BKN030 OVC040
  FM300900 19008KT P6SM OVC025
  FM301200 18012KT P6SM VCSH OVC020
  FM302100 19012G20KT 4SM -RA BR OVC015
S 19 nm 322' KTCM TAF KTCM 292100Z 2921/0103 22007KT 9999 SCT020 BKN050 620809 QNH3023INS
  BECMG 3005/3006 VRB06KT 9999 SCT012 BKN020 620809 QNH3018INS
  BECMG 3013/3014 21009KT 8000 -SHRA BKN012 OVC020 610809 QNH3017INS TX15/2921Z TN10/3007Z
SW 24 nm 301' KGRF TAF KGRF 292105Z 2921/0103 18005KT 9999 SCT015 BKN025 QNH3021INS
  BECMG 3004/3005 19006KT 9999 BKN025 QNH3017INS
  BECMG 3008/3009 21005KT 9999 OVC010 620802 QNH3016INS
  BECMG 3014/3015 18010G18KT 8000 -SHRA BKN010 OVC020 611006 QNH3017INS
  BECMG 3022/3023 19010G17KT 9000 -SHRA BKN015 611006 QNH3016INS TX15/2921Z TN10/3005Z
N 27 nm 606' KPAE TAF KPAE 292325Z 3000/3024 16009KT P6SM OVC021
  FM300900 17006KT P6SM OVC015
  FM301200 18009KT P6SM -RA OVC012
  FM302100 17012G22KT 4SM -RA BR OVC010
SW 37 nm 207' KOLM TAF KOLM 292325Z 3000/3024 18006KT P6SM FEW028 BKN040
  FM300600 20003KT P6SM OVC025
  FM301200 21003KT P6SM VCSH OVC015
  FM301800 22004KT 4SM -RA OVC012
N 55 nm 47' KNUW TAF KNUW 2923/3023 15008KT 9999 VCSH SCT015 SCT035 BKN075 BKN180 OVC250 QNH3021INS
  TEMPO 3003/3009 12009KT 9999 SCT005 BKN015 OVC070
  FM300700 VRB06KT 9000 BR BCFG SCT005 BKN050 OVC120 QNH3013INS
  TEMPO 3007/3013 17007KT 3200 -DZ BR BKN004 OVC010
  FM301300 16012KT 6000 -RA BR SCT004 BKN015 OVC050 640809 540109 QNH3012INS
  FM301700 15020G32KT 8000 -RA BR FEW010 SCT033 OVC045 640906 540009 QNH3009INS
  TEMPO 3017/3023 15015G25KT 3200 RA BR SCT010 BKN015 OVC032 T14/2922Z T09/3013Z FS30046
NW 62 nm 291' KCLM TAF
  AMD KCLM 300056Z 3001/3024 25005KT P6SM BKN070
  TEMPO 3001/3005 2SM BR FEW001
  FM300900 24003KT P6SM VCSH OVC050
  FM301400 25006KT P6SM -RA OVC018
  FM301800 28004KT 4SM -RA BR OVC015
SW 72 nm 17' KHQM KHQM 300303Z 3003/3024 24003KT 5SM -RA BR SCT004 OVC012
  FM300900 20004KT P6SM OVC008
  FM301200 16009KT P6SM VCSH OVC015
  FM301500 18012G18KT 4SM -RA BR OVC008
N 81 nm 171' KBLI TAF KBLI 292325Z 3000/3024 16005KT P6SM BKN080
  FM300900 18006KT P6SM VCSH OVC050
  FM301200 18004KT P6SM -RA OVC025
  FM302100 18008G15KT 5SM -RA BR OVC015
E 85 nm 1248' KEAT KEAT 292330Z 3000/3024 VRB04KT P6SM SKC
  FM300200 34003KT P6SM BKN200
  FM301300 28007KT P6SM BKN100
  FM301500 28006KT P6SM OVC050
  FM302200 VRB04KT P6SM OVC025
SE 89 nm 1098' KYKM TAF KYKM 292332Z 3000/3024 VRB05KT P6SM SKC
  FM301300 27006KT P6SM BKN120
  FM302000 25007KT P6SM BKN090

Shortcut to this page: http://wxbay.com.

Data may contain errors.